Time;durP1;ratioP1;P1;durP2;ratioP2;P2;SDS_P1;SDS_P2;PMS_P1;PMS_P2;Temp;Humidity;BMP_temperature;BMP_pressure;BME280_temperature;BME280_humidity;BME280_pressure;Samples;Min_cycle;Max_cycle;Signal;HPM_P1;HPM_P2
2022/05/31 00:00:03;;;;;;;1.90;1.80;;;11.80;58.80;;;;;;4954333;28;20031;-68
2022/05/31 00:02:29;;;;;;;2.72;1.80;;;11.80;58.80;;;;;;4955678;28;20060;-67
2022/05/31 00:04:54;;;;;;;2.05;1.92;;;11.80;58.80;;;;;;4954112;28;20039;-67
2022/05/31 00:07:20;;;;;;;2.65;1.80;;;11.80;59.10;;;;;;4949879;28;20603;-66
2022/05/31 00:09:46;;;;;;;2.35;1.92;;;11.80;59.20;;;;;;4954203;28;20429;-67
2022/05/31 00:12:12;;;;;;;2.25;1.70;;;11.70;59.30;;;;;;4957453;28;20047;-66
2022/05/31 00:14:39;;;;;;;2.75;1.98;;;11.70;59.50;;;;;;4957487;28;20029;-67
2022/05/31 00:17:05;;;;;;;3.47;2.15;;;11.70;59.70;;;;;;4955466;28;20058;-67
2022/05/31 00:19:31;;;;;;;2.60;2.10;;;11.70;59.70;;;;;;4956946;28;20035;-67
2022/05/31 00:22:05;;;;;;;2.95;2.30;;;11.60;59.70;;;;;;4956274;28;20031;-66
2022/05/31 00:24:30;;;;;;;2.47;2.28;;;11.60;60.10;;;;;;4958236;28;20039;-67
2022/05/31 00:26:56;;;;;;;3.33;2.17;;;11.50;59.80;;;;;;4957342;28;20528;-67
2022/05/31 00:29:22;;;;;;;2.40;2.20;;;11.50;60.10;;;;;;4957987;28;20032;-67
2022/05/31 00:31:49;;;;;;;2.30;2.10;;;11.50;60.30;;;;;;4956046;28;21679;-67
2022/05/31 00:34:16;;;;;;;3.08;2.25;;;11.40;60.40;;;;;;4956146;28;20043;-66
2022/05/31 00:36:44;;;;;;;3.00;2.25;;;11.40;60.50;;;;;;4956811;28;21175;-66
2022/05/31 00:39:10;;;;;;;2.17;1.98;;;11.40;60.80;;;;;;4955356;28;20027;-67
2022/05/31 00:41:36;;;;;;;2.65;2.40;;;11.40;60.60;;;;;;4956723;28;20034;-67
2022/05/31 00:44:11;;;;;;;4.25;2.25;;;11.40;60.80;;;;;;4962390;28;20042;-67
2022/05/31 00:46:51;;;;;;;4.15;2.42;;;11.40;61.50;;;;;;4956704;28;20027;-67
2022/05/31 00:49:31;;;;;;;2.28;2.10;;;11.40;62.10;;;;;;4956132;28;20035;-67
2022/05/31 00:52:00;;;;;;;2.38;2.13;;;11.30;62.10;;;;;;4954832;28;20035;-67
2022/05/31 00:54:30;;;;;;;3.03;2.13;;;11.30;61.30;;;;;;4956894;28;20038;-67
2022/05/31 00:56:57;;;;;;;3.53;1.80;;;11.30;61.40;;;;;;4957587;28;20170;-66
2022/05/31 00:59:32;;;;;;;2.35;2.15;;;11.30;61.40;;;;;;4956486;28;20046;-67
2022/05/31 01:01:57;;;;;;;;;;;11.30;61.70;;;;;;4960900;28;20039;-66
2022/05/31 01:04:31;;;;;;;2.22;2.05;;;11.30;61.70;;;;;;4957397;28;19928;-67
2022/05/31 01:06:58;;;;;;;2.38;2.17;;;11.30;61.30;;;;;;4954173;28;20046;-66
2022/05/31 01:09:24;;;;;;;2.72;2.28;;;11.20;60.80;;;;;;4953629;28;20125;-67
2022/05/31 01:11:50;;;;;;;3.58;2.20;;;11.20;61.20;;;;;;4949774;28;20032;-67
2022/05/31 01:14:16;;;;;;;2.63;2.10;;;11.20;61.50;;;;;;4949629;28;20031;-66
2022/05/31 01:17:01;;;;;;;3.15;2.20;;;11.20;61.50;;;;;;4953065;28;20031;-67
2022/05/31 01:22:11;;;;;;;2.53;2.33;;;11.20;62.20;;;;;;4952814;28;19962;-67
2022/05/31 01:25:23;;;;;;;3.03;2.20;;;11.20;61.10;;;;;;4953682;28;20088;-67
2022/05/31 01:28:08;;;;;;;2.65;2.22;;;11.10;62.50;;;;;;4954806;28;20063;-68
2022/05/31 01:30:40;;;;;;;3.00;2.30;;;11.10;62.40;;;;;;4954278;28;20063;-67
2022/05/31 01:33:12;;;;;;;3.22;2.63;;;11.00;61.80;;;;;;4955903;28;20386;-66
2022/05/31 01:35:38;;;;;;;3.70;2.20;;;11.00;62.00;;;;;;4955524;28;20590;-67
2022/05/31 01:38:20;;;;;;;2.45;2.25;;;11.00;61.90;;;;;;4951874;28;20066;-67
2022/05/31 01:41:09;;;;;;;2.00;1.80;;;11.00;63.00;;;;;;4954012;28;20588;-67
2022/05/31 01:43:35;;;;;;;4.38;2.17;;;11.00;63.00;;;;;;4956626;28;20104;-67
2022/05/31 01:46:08;;;;;;;2.40;2.20;;;11.00;62.40;;;;;;4953962;28;20122;-68
2022/05/31 01:48:36;;;;;;;5.70;2.40;;;10.90;63.10;;;;;;4957312;28;20042;-66
2022/05/31 01:51:03;;;;;;;2.70;2.50;;;10.90;62.80;;;;;;4954268;28;20432;-67
2022/05/31 01:53:29;;;;;;;2.95;2.40;;;10.90;62.80;;;;;;4955669;28;20027;-67
2022/05/31 01:55:56;;;;;;;2.45;2.25;;;10.90;62.70;;;;;;4953876;28;20529;-66
2022/05/31 01:58:25;;;;;;;2.60;2.08;;;10.80;62.80;;;;;;4953415;28;20038;-67
2022/05/31 02:00:52;;;;;;;2.55;2.35;;;10.80;63.10;;;;;;4955655;28;20396;-67
2022/05/31 02:03:19;;;;;;;2.58;2.35;;;10.80;62.90;;;;;;4953960;28;20043;-65
2022/05/31 02:05:50;;;;;;;4.15;2.30;;;10.80;63.30;;;;;;4954226;28;20031;-67
2022/05/31 02:08:18;;;;;;;2.40;2.20;;;10.80;64.00;;;;;;4954525;28;20036;-65
2022/05/31 02:10:45;;;;;;;6.28;2.60;;;10.80;63.60;;;;;;4951769;28;20117;-65
2022/05/31 02:13:12;;;;;;;2.90;2.58;;;10.70;63.60;;;;;;4950883;28;20031;-67
2022/05/31 02:15:38;;;;;;;2.65;2.45;;;10.70;64.00;;;;;;4960113;28;20023;-67
2022/05/31 02:18:04;;;;;;;4.55;2.22;;;10.70;64.20;;;;;;4953601;28;20585;-67
2022/05/31 02:20:30;;;;;;;2.80;2.40;;;10.70;64.30;;;;;;4957013;28;20035;-67
2022/05/31 02:22:55;;;;;;;2.50;2.30;;;10.70;64.30;;;;;;4953103;28;20047;-66
2022/05/31 02:25:21;;;;;;;2.53;2.33;;;10.70;64.30;;;;;;4953243;28;21002;-67
2022/05/31 02:27:47;;;;;;;2.45;2.28;;;10.60;64.30;;;;;;4953224;28;20098;-66
2022/05/31 02:30:13;;;;;;;3.22;2.92;;;10.60;65.30;;;;;;4954645;28;20035;-67
2022/05/31 02:32:40;;;;;;;2.53;2.28;;;10.60;64.60;;;;;;4953839;28;20861;-67
2022/05/31 02:35:06;;;;;;;2.55;2.40;;;10.60;64.70;;;;;;4953738;28;20130;-67
2022/05/31 02:37:32;;;;;;;2.90;2.70;;;10.50;64.80;;;;;;4953983;28;20082;-67
2022/05/31 02:39:58;;;;;;;2.80;2.47;;;10.50;64.80;;;;;;4952926;28;20510;-67
2022/05/31 02:42:24;;;;;;;3.10;2.58;;;10.40;64.90;;;;;;4953879;28;20062;-67
2022/05/31 02:44:51;;;;;;;3.85;2.70;;;10.40;65.00;;;;;;4952121;28;20125;-67
2022/05/31 02:47:18;;;;;;;2.90;2.70;;;10.30;65.20;;;;;;4951179;28;20128;-67
2022/05/31 02:49:45;;;;;;;3.10;2.80;;;10.30;65.50;;;;;;4954397;28;20057;-67
2022/05/31 02:52:10;;;;;;;3.00;2.65;;;10.30;65.80;;;;;;4953176;28;20031;-67
2022/05/31 02:54:36;;;;;;;3.65;2.60;;;10.30;65.70;;;;;;4952006;28;20398;-67
2022/05/31 02:57:03;;;;;;;3.10;2.70;;;10.30;65.70;;;;;;4949909;28;20054;-67
2022/05/31 02:59:28;;;;;;;5.13;2.70;;;10.30;65.70;;;;;;4954271;28;20249;-67
2022/05/31 03:01:54;;;;;;;3.15;2.65;;;10.30;65.70;;;;;;4948918;28;21485;-67
2022/05/31 03:04:20;;;;;;;3.75;2.70;;;10.30;65.90;;;;;;4955806;28;20402;-68
2022/05/31 03:06:46;;;;;;;2.97;2.47;;;10.30;65.80;;;;;;4952669;28;20035;-66
2022/05/31 03:09:11;;;;;;;3.65;2.50;;;10.30;65.70;;;;;;4954796;28;20081;-67
2022/05/31 03:11:46;;;;;;;2.70;2.50;;;10.30;65.80;;;;;;4956589;28;20058;-66
2022/05/31 03:14:36;;;;;;;3.60;2.47;;;10.30;66.60;;;;;;4957142;28;20034;-67
2022/05/31 03:17:25;;;;;;;2.92;2.60;;;10.40;66.90;;;;;;4956517;28;20043;-66
2022/05/31 03:19:58;;;;;;;2.80;2.60;;;10.40;67.10;;;;;;4958381;28;20038;-67
2022/05/31 03:22:28;;;;;;;3.08;2.70;;;10.40;66.20;;;;;;4956867;28;20035;-64
2022/05/31 03:25:19;;;;;;;4.88;2.40;;;10.40;66.40;;;;;;4956956;28;20271;-67
2022/05/31 03:27:46;;;;;;;3.90;2.50;;;10.40;66.50;;;;;;4954623;28;20487;-63
2022/05/31 03:30:13;;;;;;;2.92;2.72;;;10.40;66.00;;;;;;4951688;28;20031;-66
2022/05/31 03:32:39;;;;;;;3.33;2.70;;;10.40;66.10;;;;;;4952741;28;20054;-66
2022/05/31 03:35:06;;;;;;;4.35;2.53;;;10.40;66.20;;;;;;4955996;28;20518;-66
2022/05/31 03:37:32;;;;;;;2.63;2.42;;;10.40;66.30;;;;;;4958418;28;20038;-66
2022/05/31 03:39:58;;;;;;;3.35;3.05;;;10.40;66.20;;;;;;4952349;28;20035;-67
2022/05/31 03:42:23;;;;;;;3.05;2.75;;;10.30;66.40;;;;;;4952172;28;20439;-66
2022/05/31 03:44:51;;;;;;;3.80;2.97;;;10.30;66.60;;;;;;4951698;28;20046;-66
2022/05/31 03:47:17;;;;;;;3.65;2.90;;;10.30;67.60;;;;;;4953763;28;20424;-67
2022/05/31 03:49:42;;;;;;;3.30;3.05;;;10.30;66.60;;;;;;4952611;28;20027;-67
2022/05/31 03:52:09;;;;;;;3.78;3.10;;;10.30;66.70;;;;;;4953805;28;20043;-67
2022/05/31 03:54:36;;;;;;;3.47;3.00;;;10.20;66.90;;;;;;4958395;28;20593;-64
2022/05/31 03:57:06;;;;;;;3.40;3.10;;;10.20;66.90;;;;;;4955089;28;20045;-66
2022/05/31 03:59:38;;;;;;;4.68;2.97;;;10.10;66.90;;;;;;4952695;28;20063;-67
2022/05/31 04:02:05;;;;;;;3.63;2.95;;;10.10;67.60;;;;;;4954213;28;20043;-66
2022/05/31 04:04:31;;;;;;;3.65;3.03;;;10.10;67.20;;;;;;4953726;28;20077;-66
2022/05/31 04:06:57;;;;;;;3.30;3.00;;;10.20;67.30;;;;;;4954115;28;20039;-66
2022/05/31 04:09:23;;;;;;;4.25;3.13;;;10.20;67.30;;;;;;4952890;28;20139;-68
2022/05/31 04:11:48;;;;;;;4.45;3.10;;;10.20;67.30;;;;;;4949821;28;20547;-66
2022/05/31 04:14:14;;;;;;;7.82;5.28;;;10.20;67.40;;;;;;4952618;28;20034;-66
2022/05/31 04:16:40;;;;;;;5.32;4.30;;;10.20;67.50;;;;;;4951316;28;20456;-67
2022/05/31 04:19:05;;;;;;;4.53;3.30;;;10.20;67.50;;;;;;4953852;28;20038;-67
2022/05/31 04:21:31;;;;;;;4.10;3.60;;;10.30;67.50;;;;;;4953857;28;20070;-66
2022/05/31 04:23:59;;;;;;;11.93;7.30;;;10.30;67.40;;;;;;4953723;28;20515;-66
2022/05/31 04:26:36;;;;;;;8.23;5.22;;;10.40;67.30;;;;;;4951952;28;20070;-64
2022/05/31 04:29:02;;;;;;;5.22;3.72;;;10.40;67.70;;;;;;4947333;28;20046;-66
2022/05/31 04:31:27;;;;;;;4.30;3.35;;;10.50;67.30;;;;;;4949851;28;20531;-66
2022/05/31 04:33:53;;;;;;;4.30;3.63;;;10.50;67.30;;;;;;4950731;28;20047;-66
2022/05/31 04:36:21;;;;;;;4.43;3.08;;;10.60;67.50;;;;;;4950462;28;20031;-65
2022/05/31 04:38:47;;;;;;;4.72;3.15;;;10.60;67.40;;;;;;4950489;28;20450;-67
2022/05/31 04:41:28;;;;;;;4.97;3.20;;;10.60;67.20;;;;;;4954231;28;20407;-66
2022/05/31 04:43:55;;;;;;;3.83;2.90;;;10.60;68.10;;;;;;4955242;28;20094;-67
2022/05/31 04:46:25;;;;;;;3.40;3.03;;;10.70;67.30;;;;;;4954800;28;20035;-68
2022/05/31 04:48:56;;;;;;;5.00;3.20;;;10.60;67.40;;;;;;4956262;28;20126;-69
2022/05/31 04:51:22;;;;;;;3.72;3.20;;;10.70;67.70;;;;;;4955717;28;20046;-68
2022/05/31 04:53:49;;;;;;;4.43;3.20;;;10.80;67.70;;;;;;4954904;28;20067;-69
2022/05/31 04:56:19;;;;;;;3.67;3.00;;;10.80;67.60;;;;;;4956344;28;20526;-66
2022/05/31 04:58:46;;;;;;;4.32;3.03;;;10.90;67.60;;;;;;4958709;28;20043;-66
2022/05/31 05:01:12;;;;;;;5.00;3.15;;;10.90;67.30;;;;;;4960355;28;20038;-68
2022/05/31 05:03:40;;;;;;;4.53;3.33;;;11.00;67.10;;;;;;4959139;28;20035;-68
2022/05/31 05:06:08;;;;;;;3.30;3.00;;;11.10;67.10;;;;;;4959848;28;20034;-68
2022/05/31 05:08:36;;;;;;;2.95;2.75;;;11.10;66.80;;;;;;4956653;28;20074;-68
2022/05/31 05:11:04;;;;;;;3.10;2.88;;;11.20;66.80;;;;;;4960810;28;20411;-68
2022/05/31 05:13:31;;;;;;;3.58;3.00;;;11.20;66.90;;;;;;4956660;28;20030;-67
2022/05/31 05:15:57;;;;;;;4.18;3.38;;;11.30;67.20;;;;;;4959583;28;20233;-66
2022/05/31 05:18:24;;;;;;;3.47;3.17;;;11.30;67.20;;;;;;4956723;28;20066;-66
2022/05/31 05:20:50;;;;;;;3.58;3.25;;;11.40;67.30;;;;;;4957554;28;20039;-66
2022/05/31 05:23:16;;;;;;;3.08;2.83;;;11.40;67.30;;;;;;4958646;28;20039;-66
2022/05/31 05:25:48;;;;;;;3.38;3.00;;;11.50;67.10;;;;;;4961991;28;20411;-66
2022/05/31 05:30:58;;;;;;;4.95;3.58;;;11.70;67.20;;;;;;4959052;28;20415;-65
2022/05/31 05:33:24;;;;;;;5.07;2.83;;;11.70;67.00;;;;;;4956249;28;20032;-66
2022/05/31 05:35:49;;;;;;;4.93;2.83;;;11.80;66.70;;;;;;4959281;28;20137;-66
2022/05/31 05:38:15;;;;;;;3.47;3.17;;;11.80;66.60;;;;;;4961346;28;20077;-66
2022/05/31 05:40:41;;;;;;;3.75;3.17;;;11.90;66.80;;;;;;4956356;28;21143;-66
2022/05/31 05:43:08;;;;;;;3.67;3.25;;;11.90;66.70;;;;;;4959940;28;20121;-66
2022/05/31 05:45:35;;;;;;;4.20;3.40;;;11.90;66.40;;;;;;4958641;28;20057;-67
2022/05/31 05:48:01;;;;;;;3.45;3.10;;;12.00;66.40;;;;;;4957772;28;20043;-66
2022/05/31 05:50:26;;;;;;;3.50;3.20;;;12.00;66.40;;;;;;4953627;28;20633;-67
2022/05/31 05:53:02;;;;;;;4.20;3.15;;;12.00;66.70;;;;;;4957071;28;20117;-68
2022/05/31 05:55:28;;;;;;;6.20;3.80;;;12.00;66.70;;;;;;4957175;28;20600;-67
2022/05/31 05:57:54;;;;;;;3.70;3.20;;;12.00;66.30;;;;;;4959068;28;20050;-67
2022/05/31 06:00:21;;;;;;;4.18;3.58;;;12.00;66.40;;;;;;4958786;28;20379;-67
2022/05/31 06:02:54;;;;;;;5.28;3.45;;;12.00;66.60;;;;;;4958523;28;20047;-65
2022/05/31 06:05:28;;;;;;;4.65;3.40;;;12.00;66.80;;;;;;4960330;28;20458;-66
2022/05/31 06:08:00;;;;;;;4.10;3.50;;;12.00;66.60;;;;;;4961612;28;20674;-67
2022/05/31 06:10:55;;;;;;;3.75;3.28;;;12.10;66.70;;;;;;4961504;28;20569;-67
2022/05/31 06:13:26;;;;;;;3.83;3.40;;;12.10;67.10;;;;;;4962484;28;20418;-67
2022/05/31 06:15:56;;;;;;;4.32;3.40;;;12.20;66.60;;;;;;4958085;28;20183;-67
2022/05/31 06:18:31;;;;;;;5.55;3.60;;;12.20;66.60;;;;;;4959858;28;20033;-66
2022/05/31 06:21:04;;;;;;;3.92;3.30;;;12.30;66.60;;;;;;4959464;28;20035;-67
2022/05/31 06:23:30;;;;;;;3.95;3.33;;;12.40;66.90;;;;;;4957413;28;20387;-66
2022/05/31 06:25:57;;;;;;;5.93;3.35;;;12.40;66.60;;;;;;4956123;28;20053;-67
2022/05/31 06:28:23;;;;;;;4.22;3.28;;;12.50;66.60;;;;;;4955921;28;20031;-66
2022/05/31 06:30:49;;;;;;;3.75;3.33;;;12.60;66.60;;;;;;4958439;28;20089;-66
2022/05/31 06:33:14;;;;;;;4.45;3.33;;;12.60;66.40;;;;;;4958014;28;20063;-67
2022/05/31 06:35:40;;;;;;;4.47;3.40;;;12.70;66.40;;;;;;4957530;28;20043;-66
2022/05/31 06:38:06;;;;;;;5.10;3.40;;;12.80;66.20;;;;;;4955373;28;20574;-67
2022/05/31 06:40:32;;;;;;;5.03;3.42;;;12.90;66.40;;;;;;4957147;28;20030;-66
2022/05/31 06:42:58;;;;;;;5.63;3.70;;;12.90;66.70;;;;;;4956068;28;20042;-67
2022/05/31 06:45:24;;;;;;;7.30;3.47;;;13.00;66.60;;;;;;4959296;28;20039;-66
2022/05/31 06:47:50;;;;;;;4.03;3.58;;;13.00;66.40;;;;;;4972327;28;20435;-67
2022/05/31 06:50:16;;;;;;;4.55;3.30;;;13.10;66.40;;;;;;4957019;28;20138;-67
2022/05/31 06:58:10;;;;;;;4.68;3.80;;;13.40;66.40;;;;;;4958863;28;20330;-66
2022/05/31 07:00:36;;;;;;;4.28;3.70;;;13.50;66.20;;;;;;4958995;28;20042;-66
2022/05/31 07:03:02;;;;;;;6.10;3.45;;;13.50;66.10;;;;;;4958362;28;20048;-66
2022/05/31 07:05:27;;;;;;;5.07;3.83;;;13.50;66.20;;;;;;4958867;28;20035;-66
2022/05/31 07:07:54;;;;;;;7.03;3.45;;;13.50;66.20;;;;;;4957115;28;20078;-66
2022/05/31 07:10:20;;;;;;;8.70;3.70;;;13.50;66.20;;;;;;4961231;28;20047;-67
2022/05/31 07:12:46;;;;;;;4.10;3.50;;;13.60;66.00;;;;;;4955758;28;20101;-67
2022/05/31 07:15:13;;;;;;;3.83;3.40;;;13.60;66.10;;;;;;4957585;28;20490;-67
2022/05/31 07:17:39;;;;;;;4.72;3.47;;;13.70;66.00;;;;;;4956371;28;20067;-64
2022/05/31 07:20:05;;;;;;;4.05;3.70;;;13.80;66.00;;;;;;4957046;28;20130;-66
2022/05/31 07:22:31;;;;;;;3.30;3.10;;;13.80;66.10;;;;;;4958253;28;20048;-66
2022/05/31 07:24:57;;;;;;;3.53;3.22;;;14.00;66.10;;;;;;4957432;28;20430;-67
2022/05/31 07:27:24;;;;;;;3.35;3.00;;;14.10;66.00;;;;;;4956637;28;20045;-67
2022/05/31 07:29:50;;;;;;;3.80;3.40;;;14.10;65.40;;;;;;4954436;28;20054;-67
2022/05/31 07:32:15;;;;;;;4.13;3.50;;;14.30;65.30;;;;;;4955567;28;20641;-67
2022/05/31 07:34:42;;;;;;;4.50;3.17;;;14.40;65.40;;;;;;4953610;28;20864;-66
2022/05/31 07:37:08;;;;;;;5.60;3.53;;;14.40;65.00;;;;;;4954823;28;20405;-67
2022/05/31 07:39:34;;;;;;;6.68;3.42;;;14.50;65.00;;;;;;4957620;28;20442;-66
2022/05/31 07:42:00;;;;;;;6.32;3.35;;;14.60;65.10;;;;;;4958305;28;20035;-66
2022/05/31 07:44:26;;;;;;;3.40;3.10;;;14.70;65.00;;;;;;4957106;28;20498;-67
2022/05/31 07:46:53;;;;;;;4.93;3.40;;;14.80;65.00;;;;;;4955537;28;20466;-65
2022/05/31 07:49:20;;;;;;;4.07;3.67;;;14.90;65.10;;;;;;4958101;28;20064;-66
2022/05/31 07:51:46;;;;;;;4.95;3.42;;;15.10;66.00;;;;;;4959896;28;20031;-67
2022/05/31 07:54:11;;;;;;;3.88;3.47;;;15.20;65.20;;;;;;4957285;28;20510;-67
2022/05/31 07:56:37;;;;;;;4.60;3.20;;;15.30;65.20;;;;;;4957453;28;20289;-66
2022/05/31 07:59:04;;;;;;;3.75;3.40;;;15.40;65.30;;;;;;4959019;28;20037;-67
2022/05/31 08:01:29;;;;;;;3.95;3.58;;;15.50;64.90;;;;;;4957478;28;20030;-67
2022/05/31 08:03:55;;;;;;;5.43;3.35;;;15.70;64.60;;;;;;4955335;28;20466;-67
2022/05/31 08:06:23;;;;;;;3.45;3.15;;;15.80;64.10;;;;;;4956087;28;20035;-67
2022/05/31 08:08:50;;;;;;;3.25;2.95;;;15.90;63.80;;;;;;4955581;28;20043;-67
2022/05/31 08:11:22;;;;;;;3.38;3.08;;;16.00;64.00;;;;;;4953400;28;20038;-67
2022/05/31 08:13:49;;;;;;;3.72;3.05;;;16.20;63.40;;;;;;4955632;28;20602;-67
2022/05/31 08:16:21;;;;;;;5.95;3.17;;;16.30;63.10;;;;;;4959280;28;20074;-67
2022/05/31 08:18:48;;;;;;;3.58;2.90;;;16.50;62.90;;;;;;4956841;28;20046;-67
2022/05/31 08:21:27;;;;;;;5.28;3.22;;;16.60;62.90;;;;;;4957354;28;20330;-67
2022/05/31 08:24:01;;;;;;;3.17;2.92;;;16.70;62.70;;;;;;4955525;28;20040;-67
2022/05/31 08:26:27;;;;;;;3.47;2.85;;;16.90;62.40;;;;;;4955168;28;20069;-67
2022/05/31 08:28:52;;;;;;;4.93;3.03;;;17.10;62.30;;;;;;4956223;28;20042;-67
2022/05/31 08:31:27;;;;;;;3.20;2.88;;;17.20;62.30;;;;;;4959455;28;20054;-67
2022/05/31 08:33:53;;;;;;;4.55;3.20;;;17.40;62.40;;;;;;4959297;28;20042;-67
2022/05/31 08:36:19;;;;;;;3.70;3.40;;;17.60;62.20;;;;;;4960610;28;20545;-67
2022/05/31 08:38:44;;;;;;;6.30;3.22;;;17.70;61.60;;;;;;4960459;28;20050;-66
2022/05/31 08:41:30;;;;;;;4.15;3.28;;;17.90;61.30;;;;;;4961198;28;20175;-67
2022/05/31 08:44:05;;;;;;;3.83;3.40;;;18.00;60.30;;;;;;4957949;28;20035;-67
2022/05/31 08:46:48;;;;;;;6.45;3.58;;;18.10;60.30;;;;;;4956664;28;20073;-66
2022/05/31 08:51:52;;;;;;;5.63;3.30;;;18.20;60.20;;;;;;4959766;28;20253;-67
2022/05/31 08:52:24;;;;;;;7.05;3.22;;;18.40;59.80;;;;;;4958142;28;20042;-67
2022/05/31 08:57:53;;;;;;;4.07;3.25;;;18.60;60.00;;;;;;4959256;28;20098;-67
2022/05/31 09:00:26;;;;;;;5.13;3.38;;;18.70;59.50;;;;;;4958766;28;20032;-67
2022/05/31 09:03:03;;;;;;;3.47;2.95;;;18.80;59.60;;;;;;4958972;28;20167;-65
2022/05/31 09:05:36;;;;;;;5.30;3.22;;;18.90;59.00;;;;;;4961043;28;20178;-67
2022/05/31 09:08:25;;;;;;;7.35;3.17;;;19.00;59.20;;;;;;4959613;28;20050;-67
2022/05/31 09:11:06;;;;;;;7.07;2.65;;;19.10;59.00;;;;;;4959712;28;20033;-64
2022/05/31 09:13:50;;;;;;;3.83;2.65;;;19.20;58.50;;;;;;4958903;28;20094;-66
2022/05/31 09:16:18;;;;;;;3.83;2.67;;;19.30;58.60;;;;;;4963318;28;20039;-67
2022/05/31 09:18:44;;;;;;;3.83;2.42;;;19.50;58.80;;;;;;4959227;28;20101;-65
2022/05/31 09:21:40;;;;;;;3.47;2.53;;;19.50;58.60;;;;;;4961908;28;20039;-67
2022/05/31 09:24:18;;;;;;;3.90;1.98;;;19.70;58.10;;;;;;4960811;28;20031;-67
2022/05/31 09:27:02;;;;;;;4.43;2.15;;;19.90;57.60;;;;;;4959244;28;20035;-67
2022/05/31 09:29:34;;;;;;;3.42;1.90;;;20.00;55.90;;;;;;4960972;28;20082;-67
2022/05/31 09:32:02;;;;;;;4.15;2.08;;;20.20;57.00;;;;;;4960392;28;20066;-66
2022/05/31 09:34:37;;;;;;;1.90;1.80;;;20.30;57.10;;;;;;4959723;28;20046;-66
2022/05/31 09:37:12;;;;;;;;;;;20.50;57.10;;;;;;4959997;28;20119;-66
2022/05/31 09:39:37;;;;;;;3.78;1.77;;;20.60;57.20;;;;;;4962602;28;20041;-66
2022/05/31 09:42:16;;;;;;;4.13;2.00;;;20.70;56.60;;;;;;4957440;28;20031;-66
2022/05/31 09:44:47;;;;;;;4.45;1.60;;;20.90;55.00;;;;;;4972806;28;20746;-66
2022/05/31 09:47:24;;;;;;;2.85;1.48;;;21.00;55.30;;;;;;4961228;28;20247;-67
2022/05/31 09:49:51;;;;;;;1.48;1.17;;;21.20;55.30;;;;;;4959101;28;20192;-67
2022/05/31 09:52:22;;;;;;;3.78;1.33;;;21.30;54.70;;;;;;4959746;28;20106;-67
2022/05/31 09:58:09;;;;;;;2.40;1.40;;;21.60;51.20;;;;;;4928622;28;20037;-66
2022/05/31 10:01:00;;;;;;;2.97;1.30;;;21.70;52.00;;;;;;4957510;28;20664;-66
2022/05/31 10:03:52;;;;;;;2.40;1.30;;;21.80;51.30;;;;;;4961512;28;20030;-67
2022/05/31 10:06:20;;;;;;;3.53;1.17;;;22.00;50.10;;;;;;4952992;28;20050;-68
2022/05/31 10:08:51;;;;;;;3.45;1.30;;;22.10;52.00;;;;;;4956562;28;20041;-65
2022/05/31 10:11:34;;;;;;;2.00;1.23;;;22.20;51.10;;;;;;4957397;28;20054;-68
2022/05/31 10:14:21;;;;;;;4.53;1.20;;;22.30;49.70;;;;;;4959166;28;20126;-66
2022/05/31 10:16:49;;;;;;;3.13;1.20;;;22.50;49.70;;;;;;4960575;28;20498;-68
2022/05/31 10:19:27;;;;;;;3.42;1.45;;;22.60;50.00;;;;;;4959001;28;20058;-67
2022/05/31 10:21:53;;;;;;;5.07;1.00;;;22.70;48.50;;;;;;4958422;28;20082;-68
2022/05/31 10:24:25;;;;;;;1.48;1.00;;;22.80;48.80;;;;;;4958315;28;20031;-67
2022/05/31 10:27:12;;;;;;;4.13;1.10;;;22.90;48.20;;;;;;4957446;28;20042;-67
2022/05/31 10:29:40;;;;;;;1.60;1.15;;;23.00;48.20;;;;;;4959110;28;20035;-67
2022/05/31 10:32:33;;;;;;;2.42;1.50;;;23.10;48.60;;;;;;4958667;28;20402;-67
2022/05/31 10:35:27;;;;;;;1.38;1.13;;;23.20;46.70;;;;;;4957490;28;20532;-67
2022/05/31 10:38:01;;;;;;;3.45;1.50;;;23.20;47.20;;;;;;4955917;28;20046;-66
2022/05/31 10:40:53;;;;;;;2.60;1.23;;;23.20;48.10;;;;;;4949853;28;20035;-67
2022/05/31 10:43:40;;;;;;;1.13;0.88;;;23.30;46.50;;;;;;4956990;28;20094;-68
2022/05/31 10:46:26;;;;;;;1.38;1.00;;;23.40;46.70;;;;;;4960965;28;20134;-67
2022/05/31 10:48:55;;;;;;;1.70;0.90;;;23.40;44.50;;;;;;4956149;28;20054;-67
2022/05/31 10:51:32;;;;;;;2.10;1.00;;;23.50;46.30;;;;;;4958354;28;20046;-67
2022/05/31 10:54:18;;;;;;;1.70;0.90;;;23.50;45.10;;;;;;4954880;28;20062;-67
2022/05/31 10:56:53;;;;;;;2.60;0.80;;;23.60;44.30;;;;;;4958858;28;20541;-65
2022/05/31 10:59:41;;;;;;;4.43;1.00;;;23.60;44.30;;;;;;4953343;28;20499;-66
2022/05/31 11:02:16;;;;;;;1.10;0.68;;;23.70;41.90;;;;;;4956750;28;20062;-66
2022/05/31 11:05:06;;;;;;;2.00;1.00;;;23.80;43.70;;;;;;4957693;28;20035;-67
2022/05/31 11:11:30;;;;;;;1.35;0.63;;;24.00;42.70;;;;;;4950428;28;20042;-67
2022/05/31 11:14:14;;;;;;;0.90;0.70;;;24.10;42.30;;;;;;4957588;28;20031;-67
2022/05/31 11:16:49;;;;;;;0.57;0.57;;;24.20;41.60;;;;;;4957695;28;20304;-66
2022/05/31 11:19:32;;;;;;;1.88;0.85;;;24.20;41.90;;;;;;4956364;28;20482;-65
2022/05/31 11:22:20;;;;;;;2.45;1.08;;;24.20;41.00;;;;;;4957380;28;20423;-66
2022/05/31 11:25:04;;;;;;;2.45;0.70;;;24.20;41.90;;;;;;4956091;28;20031;-67
2022/05/31 11:27:38;;;;;;;3.40;0.60;;;24.20;41.70;;;;;;4953264;28;20500;-67
2022/05/31 11:30:11;;;;;;;1.67;0.60;;;24.20;41.00;;;;;;4952453;28;20039;-66
2022/05/31 11:32:56;;;;;;;4.70;0.63;;;24.10;40.60;;;;;;4953807;28;20059;-66
2022/05/31 11:36:07;;;;;;;1.13;0.65;;;24.10;41.40;;;;;;4954778;28;20094;-66
2022/05/31 11:38:53;;;;;;;1.90;0.60;;;24.10;40.70;;;;;;4951854;28;20035;-66
2022/05/31 11:41:48;;;;;;;2.25;0.60;;;24.10;40.50;;;;;;4954600;28;20038;-67
2022/05/31 11:44:40;;;;;;;1.65;0.77;;;24.10;40.70;;;;;;4955504;28;20035;-67
2022/05/31 11:47:12;;;;;;;1.50;0.65;;;24.10;39.80;;;;;;4954008;28;20050;-67
2022/05/31 11:49:37;;;;;;;2.42;0.70;;;24.10;40.60;;;;;;4956614;28;20069;-67
2022/05/31 11:52:12;;;;;;;2.22;0.90;;;24.10;40.50;;;;;;4954675;28;20027;-67
2022/05/31 11:55:25;;;;;;;7.55;1.13;;;24.20;39.70;;;;;;4953209;28;20164;-66
2022/05/31 11:57:49;;;;;;;7.70;1.20;;;24.10;40.00;;;;;;4954205;28;20208;-66
2022/05/31 12:00:16;;;;;;;1.60;0.80;;;24.20;39.20;;;;;;4951990;28;20067;-67
2022/05/31 12:03:03;;;;;;;3.47;0.88;;;24.20;39.60;;;;;;4952312;28;20093;-66
2022/05/31 12:05:51;;;;;;;2.65;0.80;;;24.10;38.80;;;;;;4955071;28;20513;-66
2022/05/31 12:08:23;;;;;;;3.05;0.50;;;24.10;39.70;;;;;;4954175;28;20062;-64
2022/05/31 12:10:55;;;;;;;3.35;0.90;;;24.10;40.70;;;;;;4954681;28;20054;-67
2022/05/31 12:13:22;;;;;;;6.57;0.77;;;24.10;40.60;;;;;;4953205;28;20053;-67
2022/05/31 12:15:52;;;;;;;5.72;0.90;;;24.10;40.30;;;;;;4954340;28;20043;-66
2022/05/31 12:18:26;;;;;;;7.10;0.85;;;24.10;39.60;;;;;;4954570;28;20034;-65
2022/05/31 12:21:15;;;;;;;3.15;0.88;;;24.00;39.80;;;;;;4953295;28;20130;-67
2022/05/31 12:23:41;;;;;;;3.95;0.70;;;23.90;40.10;;;;;;4965281;28;20542;-66
2022/05/31 12:26:24;;;;;;;3.03;0.70;;;23.90;40.70;;;;;;4952471;28;20043;-67
2022/05/31 12:29:12;;;;;;;0.85;0.68;;;23.80;40.60;;;;;;4955602;28;20046;-66
2022/05/31 12:31:40;;;;;;;1.63;0.90;;;23.70;41.00;;;;;;4943978;28;20094;-67
2022/05/31 12:34:21;;;;;;;2.45;0.90;;;23.60;41.40;;;;;;4953632;28;20577;-65
2022/05/31 12:36:58;;;;;;;6.85;1.10;;;23.60;41.20;;;;;;4956232;28;20039;-66
2022/05/31 12:39:30;;;;;;;5.28;1.20;;;23.50;41.50;;;;;;4958894;28;20038;-66
2022/05/31 12:41:56;;;;;;;10.20;1.52;;;23.40;42.10;;;;;;4954359;28;20043;-66
2022/05/31 12:44:33;;;;;;;4.63;1.08;;;23.40;42.30;;;;;;4953983;28;20042;-66
2022/05/31 12:47:32;;;;;;;5.57;1.08;;;23.20;41.70;;;;;;4953923;28;20244;-65
2022/05/31 12:50:04;;;;;;;2.13;0.80;;;23.10;41.50;;;;;;4956554;28;20414;-66
2022/05/31 12:55:25;;;;;;;2.38;0.80;;;22.90;41.50;;;;;;4954723;28;20502;-66
2022/05/31 12:58:26;;;;;;;;;;;;;;;;;;;;;
2022/05/31 13:01:11;;;;;;;4.03;0.88;;;22.70;42.60;;;;;;4953190;28;20042;-65
2022/05/31 13:03:42;;;;;;;2.72;0.95;;;22.60;43.00;;;;;;4951308;28;20058;-66
2022/05/31 13:06:09;;;;;;;4.60;0.73;;;22.50;43.10;;;;;;4952460;28;20070;-66
2022/05/31 13:08:52;;;;;;;1.67;0.77;;;22.50;43.20;;;;;;4953548;28;20169;-67
2022/05/31 13:20:39;;;;;;;2.85;0.70;;;22.20;43.30;;;;;;4961049;28;20034;-67
2022/05/31 13:23:13;;;;;;;2.00;0.80;;;22.00;44.60;;;;;;4960529;28;20054;-67
2022/05/31 13:25:57;;;;;;;0.85;0.77;;;22.00;45.10;;;;;;4957627;28;20583;-66
2022/05/31 13:28:36;;;;;;;3.45;0.82;;;21.90;45.60;;;;;;4957519;28;20039;-66
2022/05/31 13:31:17;;;;;;;3.47;0.77;;;21.80;46.10;;;;;;4955387;28;20031;-66
2022/05/31 13:33:44;;;;;;;5.68;0.90;;;21.70;46.40;;;;;;4956228;28;20058;-65
2022/05/31 13:36:17;;;;;;;1.00;0.80;;;21.60;47.00;;;;;;4957999;28;20056;-66
2022/05/31 13:38:45;;;;;;;1.60;0.80;;;21.50;47.80;;;;;;4957355;28;20113;-65
2022/05/31 13:41:14;;;;;;;1.10;0.80;;;21.40;48.10;;;;;;4957279;28;20038;-65
2022/05/31 13:43:50;;;;;;;2.03;0.90;;;21.30;48.30;;;;;;4956486;28;20035;-66